sensor_id;sensor_type;location;lat;lon;timestamp;P1;durP1;ratioP1;P2;durP2;ratioP2
81544;SDS011;70990;50.618;7.346;2024-01-30T00:00:45;12.70;;;4.90;;
81544;SDS011;70990;50.618;7.346;2024-01-30T00:03:12;9.80;;;4.60;;
81544;SDS011;70990;50.618;7.346;2024-01-30T00:05:39;10.57;;;4.88;;
81544;SDS011;70990;50.618;7.346;2024-01-30T00:08:06;10.68;;;4.85;;
81544;SDS011;70990;50.618;7.346;2024-01-30T00:10:32;9.30;;;4.15;;
81544;SDS011;70990;50.618;7.346;2024-01-30T00:12:59;12.43;;;4.80;;
81544;SDS011;70990;50.618;7.346;2024-01-30T00:15:25;13.23;;;5.25;;
81544;SDS011;70990;50.618;7.346;2024-01-30T00:17:52;8.98;;;4.40;;
81544;SDS011;70990;50.618;7.346;2024-01-30T00:20:20;9.23;;;4.18;;
81544;SDS011;70990;50.618;7.346;2024-01-30T00:22:47;10.02;;;4.60;;
81544;SDS011;70990;50.618;7.346;2024-01-30T00:25:13;8.75;;;4.15;;
81544;SDS011;70990;50.618;7.346;2024-01-30T00:27:40;12.18;;;5.43;;
81544;SDS011;70990;50.618;7.346;2024-01-30T00:30:07;8.60;;;4.60;;
81544;SDS011;70990;50.618;7.346;2024-01-30T00:32:34;12.32;;;4.57;;
81544;SDS011;70990;50.618;7.346;2024-01-30T00:35:01;9.30;;;4.65;;
81544;SDS011;70990;50.618;7.346;2024-01-30T00:37:28;11.32;;;4.50;;
81544;SDS011;70990;50.618;7.346;2024-01-30T00:39:54;9.38;;;4.30;;
81544;SDS011;70990;50.618;7.346;2024-01-30T00:42:21;10.95;;;4.65;;
81544;SDS011;70990;50.618;7.346;2024-01-30T00:44:48;9.98;;;4.28;;
81544;SDS011;70990;50.618;7.346;2024-01-30T00:47:14;11.20;;;4.32;;
81544;SDS011;70990;50.618;7.346;2024-01-30T00:49:41;9.50;;;4.18;;
81544;SDS011;70990;50.618;7.346;2024-01-30T00:52:08;8.55;;;3.75;;
81544;SDS011;70990;50.618;7.346;2024-01-30T00:54:34;8.98;;;4.50;;
81544;SDS011;70990;50.618;7.346;2024-01-30T00:57:01;10.50;;;4.15;;
81544;SDS011;70990;50.618;7.346;2024-01-30T00:59:29;12.35;;;4.50;;
81544;SDS011;70990;50.618;7.346;2024-01-30T01:01:56;12.32;;;4.78;;
81544;SDS011;70990;50.618;7.346;2024-01-30T01:04:22;11.00;;;4.47;;
81544;SDS011;70990;50.618;7.346;2024-01-30T01:06:49;9.32;;;4.10;;
81544;SDS011;70990;50.618;7.346;2024-01-30T01:09:17;7.93;;;4.13;;
81544;SDS011;70990;50.618;7.346;2024-01-30T01:11:43;10.60;;;4.65;;
81544;SDS011;70990;50.618;7.346;2024-01-30T01:14:10;10.18;;;4.85;;
81544;SDS011;70990;50.618;7.346;2024-01-30T01:16:37;11.80;;;4.63;;
81544;SDS011;70990;50.618;7.346;2024-01-30T01:19:04;12.27;;;5.05;;
81544;SDS011;70990;50.618;7.346;2024-01-30T01:21:31;10.93;;;4.57;;
81544;SDS011;70990;50.618;7.346;2024-01-30T01:23:57;10.75;;;4.93;;
81544;SDS011;70990;50.618;7.346;2024-01-30T01:26:24;12.48;;;4.97;;
81544;SDS011;70990;50.618;7.346;2024-01-30T01:28:51;11.55;;;4.93;;
81544;SDS011;70990;50.618;7.346;2024-01-30T01:31:17;12.70;;;4.88;;
81544;SDS011;70990;50.618;7.346;2024-01-30T01:33:44;11.13;;;4.28;;
81544;SDS011;70990;50.618;7.346;2024-01-30T01:36:13;13.30;;;4.70;;
81544;SDS011;70990;50.618;7.346;2024-01-30T01:38:40;11.00;;;4.70;;
81544;SDS011;70990;50.618;7.346;2024-01-30T01:41:06;12.68;;;5.10;;
81544;SDS011;70990;50.618;7.346;2024-01-30T01:43:33;9.18;;;4.55;;
81544;SDS011;70990;50.618;7.346;2024-01-30T01:45:59;12.10;;;4.95;;
81544;SDS011;70990;50.618;7.346;2024-01-30T01:48:26;10.00;;;4.63;;
81544;SDS011;70990;50.618;7.346;2024-01-30T01:50:53;13.02;;;5.05;;
81544;SDS011;70990;50.618;7.346;2024-01-30T01:53:20;10.38;;;4.95;;
81544;SDS011;70990;50.618;7.346;2024-01-30T01:55:47;13.88;;;5.25;;
81544;SDS011;70990;50.618;7.346;2024-01-30T01:58:14;11.30;;;5.35;;
81544;SDS011;70990;50.618;7.346;2024-01-30T02:00:42;10.60;;;4.70;;
81544;SDS011;70990;50.618;7.346;2024-01-30T02:03:10;11.80;;;4.65;;
81544;SDS011;70990;50.618;7.346;2024-01-30T02:05:38;11.75;;;5.35;;
81544;SDS011;70990;50.618;7.346;2024-01-30T02:08:05;11.73;;;4.55;;
81544;SDS011;70990;50.618;7.346;2024-01-30T02:10:32;10.77;;;4.88;;
81544;SDS011;70990;50.618;7.346;2024-01-30T02:12:59;12.57;;;4.78;;
81544;SDS011;70990;50.618;7.346;2024-01-30T02:15:25;11.35;;;4.70;;
81544;SDS011;70990;50.618;7.346;2024-01-30T02:17:52;8.00;;;3.10;;
81544;SDS011;70990;50.618;7.346;2024-01-30T02:20:18;11.07;;;4.93;;
81544;SDS011;70990;50.618;7.346;2024-01-30T02:22:45;8.30;;;3.67;;
81544;SDS011;70990;50.618;7.346;2024-01-30T02:25:13;9.60;;;4.28;;
81544;SDS011;70990;50.618;7.346;2024-01-30T02:27:39;6.25;;;3.33;;
81544;SDS011;70990;50.618;7.346;2024-01-30T02:30:07;4.70;;;1.98;;
81544;SDS011;70990;50.618;7.346;2024-01-30T02:32:34;8.15;;;3.92;;
81544;SDS011;70990;50.618;7.346;2024-01-30T02:35:07;8.52;;;3.78;;
81544;SDS011;70990;50.618;7.346;2024-01-30T02:37:38;7.43;;;3.28;;
81544;SDS011;70990;50.618;7.346;2024-01-30T02:40:07;9.82;;;4.38;;
81544;SDS011;70990;50.618;7.346;2024-01-30T02:42:34;10.40;;;4.38;;
81544;SDS011;70990;50.618;7.346;2024-01-30T02:45:01;11.07;;;4.20;;
81544;SDS011;70990;50.618;7.346;2024-01-30T02:47:28;13.07;;;4.70;;
81544;SDS011;70990;50.618;7.346;2024-01-30T02:49:55;10.88;;;4.50;;
81544;SDS011;70990;50.618;7.346;2024-01-30T02:52:22;9.13;;;4.63;;
81544;SDS011;70990;50.618;7.346;2024-01-30T02:54:48;11.93;;;4.53;;
81544;SDS011;70990;50.618;7.346;2024-01-30T02:57:15;9.60;;;3.63;;
81544;SDS011;70990;50.618;7.346;2024-01-30T02:59:42;11.65;;;4.72;;
81544;SDS011;70990;50.618;7.346;2024-01-30T03:02:08;9.27;;;4.38;;
81544;SDS011;70990;50.618;7.346;2024-01-30T03:04:35;10.57;;;4.85;;
81544;SDS011;70990;50.618;7.346;2024-01-30T03:07:01;11.73;;;5.18;;
81544;SDS011;70990;50.618;7.346;2024-01-30T03:09:28;11.95;;;4.07;;
81544;SDS011;70990;50.618;7.346;2024-01-30T03:11:55;11.75;;;4.72;;
81544;SDS011;70990;50.618;7.346;2024-01-30T03:14:21;11.15;;;4.50;;
81544;SDS011;70990;50.618;7.346;2024-01-30T03:16:48;9.10;;;4.28;;
81544;SDS011;70990;50.618;7.346;2024-01-30T03:19:14;12.57;;;4.28;;
81544;SDS011;70990;50.618;7.346;2024-01-30T03:21:41;10.45;;;4.30;;
81544;SDS011;70990;50.618;7.346;2024-01-30T03:24:08;12.07;;;3.63;;
81544;SDS011;70990;50.618;7.346;2024-01-30T03:26:34;9.13;;;4.82;;
81544;SDS011;70990;50.618;7.346;2024-01-30T03:29:00;11.20;;;4.25;;
81544;SDS011;70990;50.618;7.346;2024-01-30T03:31:27;10.50;;;4.22;;
81544;SDS011;70990;50.618;7.346;2024-01-30T03:33:54;11.02;;;4.55;;
81544;SDS011;70990;50.618;7.346;2024-01-30T03:36:20;10.40;;;4.18;;
81544;SDS011;70990;50.618;7.346;2024-01-30T03:38:47;8.65;;;3.95;;
81544;SDS011;70990;50.618;7.346;2024-01-30T03:41:13;9.50;;;4.32;;
81544;SDS011;70990;50.618;7.346;2024-01-30T03:43:40;7.10;;;3.67;;
81544;SDS011;70990;50.618;7.346;2024-01-30T03:46:07;11.50;;;4.32;;
81544;SDS011;70990;50.618;7.346;2024-01-30T03:48:33;8.70;;;4.38;;
81544;SDS011;70990;50.618;7.346;2024-01-30T03:51:00;10.77;;;5.15;;
81544;SDS011;70990;50.618;7.346;2024-01-30T03:53:27;11.50;;;4.22;;
81544;SDS011;70990;50.618;7.346;2024-01-30T03:55:53;11.63;;;4.88;;
81544;SDS011;70990;50.618;7.346;2024-01-30T03:58:20;14.65;;;5.38;;
81544;SDS011;70990;50.618;7.346;2024-01-30T04:00:46;9.15;;;4.30;;
81544;SDS011;70990;50.618;7.346;2024-01-30T04:03:16;10.45;;;4.53;;
81544;SDS011;70990;50.618;7.346;2024-01-30T04:05:42;9.50;;;4.35;;
81544;SDS011;70990;50.618;7.346;2024-01-30T04:08:09;9.98;;;4.85;;
81544;SDS011;70990;50.618;7.346;2024-01-30T04:10:36;13.02;;;5.07;;
81544;SDS011;70990;50.618;7.346;2024-01-30T04:13:03;11.75;;;4.75;;
81544;SDS011;70990;50.618;7.346;2024-01-30T04:15:30;11.02;;;4.30;;
81544;SDS011;70990;50.618;7.346;2024-01-30T04:17:59;10.65;;;5.43;;
81544;SDS011;70990;50.618;7.346;2024-01-30T04:20:26;9.27;;;4.72;;
81544;SDS011;70990;50.618;7.346;2024-01-30T04:22:53;11.32;;;4.57;;
81544;SDS011;70990;50.618;7.346;2024-01-30T04:25:20;10.18;;;4.72;;
81544;SDS011;70990;50.618;7.346;2024-01-30T04:27:47;11.10;;;4.35;;
81544;SDS011;70990;50.618;7.346;2024-01-30T04:30:14;9.20;;;3.70;;
81544;SDS011;70990;50.618;7.346;2024-01-30T04:32:41;10.35;;;4.28;;
81544;SDS011;70990;50.618;7.346;2024-01-30T04:35:09;9.88;;;4.60;;
81544;SDS011;70990;50.618;7.346;2024-01-30T04:37:37;11.73;;;4.40;;
81544;SDS011;70990;50.618;7.346;2024-01-30T04:40:05;16.27;;;6.82;;
81544;SDS011;70990;50.618;7.346;2024-01-30T04:42:32;18.88;;;8.18;;
81544;SDS011;70990;50.618;7.346;2024-01-30T04:44:59;10.85;;;5.57;;
81544;SDS011;70990;50.618;7.346;2024-01-30T04:47:26;11.80;;;5.50;;
81544;SDS011;70990;50.618;7.346;2024-01-30T04:49:52;10.02;;;5.00;;
81544;SDS011;70990;50.618;7.346;2024-01-30T04:52:19;12.63;;;5.72;;
81544;SDS011;70990;50.618;7.346;2024-01-30T04:54:46;11.60;;;5.07;;
81544;SDS011;70990;50.618;7.346;2024-01-30T04:57:13;9.63;;;4.72;;
81544;SDS011;70990;50.618;7.346;2024-01-30T04:59:39;15.52;;;4.88;;
81544;SDS011;70990;50.618;7.346;2024-01-30T05:02:06;11.93;;;4.95;;
81544;SDS011;70990;50.618;7.346;2024-01-30T05:04:33;11.65;;;5.18;;
81544;SDS011;70990;50.618;7.346;2024-01-30T05:07:00;12.07;;;5.47;;
81544;SDS011;70990;50.618;7.346;2024-01-30T05:09:27;10.68;;;4.80;;
81544;SDS011;70990;50.618;7.346;2024-01-30T05:11:53;11.70;;;5.00;;
81544;SDS011;70990;50.618;7.346;2024-01-30T05:14:20;10.75;;;5.20;;
81544;SDS011;70990;50.618;7.346;2024-01-30T05:16:47;11.00;;;4.88;;
81544;SDS011;70990;50.618;7.346;2024-01-30T05:19:14;10.02;;;5.10;;
81544;SDS011;70990;50.618;7.346;2024-01-30T05:21:41;13.38;;;5.68;;
81544;SDS011;70990;50.618;7.346;2024-01-30T05:24:07;13.75;;;4.93;;
81544;SDS011;70990;50.618;7.346;2024-01-30T05:26:34;10.13;;;4.93;;
81544;SDS011;70990;50.618;7.346;2024-01-30T05:29:01;11.82;;;4.82;;
81544;SDS011;70990;50.618;7.346;2024-01-30T05:31:27;12.98;;;4.53;;
81544;SDS011;70990;50.618;7.346;2024-01-30T05:33:54;12.25;;;4.88;;
81544;SDS011;70990;50.618;7.346;2024-01-30T05:36:21;9.13;;;4.75;;
81544;SDS011;70990;50.618;7.346;2024-01-30T05:38:48;10.77;;;4.80;;
81544;SDS011;70990;50.618;7.346;2024-01-30T05:41:14;13.70;;;5.22;;
81544;SDS011;70990;50.618;7.346;2024-01-30T05:43:41;12.43;;;4.80;;
81544;SDS011;70990;50.618;7.346;2024-01-30T05:46:08;13.18;;;5.15;;
81544;SDS011;70990;50.618;7.346;2024-01-30T05:48:34;10.85;;;5.05;;
81544;SDS011;70990;50.618;7.346;2024-01-30T05:51:01;14.30;;;5.78;;
81544;SDS011;70990;50.618;7.346;2024-01-30T05:53:28;14.02;;;6.15;;
81544;SDS011;70990;50.618;7.346;2024-01-30T05:55:55;14.40;;;5.85;;
81544;SDS011;70990;50.618;7.346;2024-01-30T05:58:21;11.77;;;5.65;;
81544;SDS011;70990;50.618;7.346;2024-01-30T06:00:48;9.20;;;4.57;;
81544;SDS011;70990;50.618;7.346;2024-01-30T06:03:15;11.50;;;4.45;;
81544;SDS011;70990;50.618;7.346;2024-01-30T06:05:41;12.98;;;4.90;;
81544;SDS011;70990;50.618;7.346;2024-01-30T06:08:08;10.35;;;4.80;;
81544;SDS011;70990;50.618;7.346;2024-01-30T06:10:35;10.85;;;5.60;;
81544;SDS011;70990;50.618;7.346;2024-01-30T06:13:01;12.35;;;5.55;;
81544;SDS011;70990;50.618;7.346;2024-01-30T06:15:28;15.75;;;7.22;;
81544;SDS011;70990;50.618;7.346;2024-01-30T06:17:55;17.67;;;6.68;;
81544;SDS011;70990;50.618;7.346;2024-01-30T06:20:22;17.05;;;7.32;;
81544;SDS011;70990;50.618;7.346;2024-01-30T06:22:49;9.43;;;4.57;;
81544;SDS011;70990;50.618;7.346;2024-01-30T06:25:15;12.13;;;5.82;;
81544;SDS011;70990;50.618;7.346;2024-01-30T06:27:42;11.70;;;5.75;;
81544;SDS011;70990;50.618;7.346;2024-01-30T06:30:10;15.60;;;6.35;;
81544;SDS011;70990;50.618;7.346;2024-01-30T06:32:37;13.13;;;5.68;;
81544;SDS011;70990;50.618;7.346;2024-01-30T06:35:04;11.88;;;5.63;;
81544;SDS011;70990;50.618;7.346;2024-01-30T06:37:31;11.93;;;6.10;;
81544;SDS011;70990;50.618;7.346;2024-01-30T06:39:58;13.30;;;5.40;;
81544;SDS011;70990;50.618;7.346;2024-01-30T06:42:24;12.35;;;5.47;;
81544;SDS011;70990;50.618;7.346;2024-01-30T06:44:51;10.77;;;5.28;;
81544;SDS011;70990;50.618;7.346;2024-01-30T06:47:18;12.38;;;5.25;;
81544;SDS011;70990;50.618;7.346;2024-01-30T06:49:44;14.23;;;6.22;;
81544;SDS011;70990;50.618;7.346;2024-01-30T06:52:11;10.68;;;4.15;;
81544;SDS011;70990;50.618;7.346;2024-01-30T06:54:38;13.27;;;5.10;;
81544;SDS011;70990;50.618;7.346;2024-01-30T06:57:05;19.60;;;7.43;;
81544;SDS011;70990;50.618;7.346;2024-01-30T06:59:31;13.23;;;5.95;;
81544;SDS011;70990;50.618;7.346;2024-01-30T07:01:58;10.20;;;4.22;;
81544;SDS011;70990;50.618;7.346;2024-01-30T07:04:25;11.32;;;5.57;;
81544;SDS011;70990;50.618;7.346;2024-01-30T07:06:52;7.50;;;3.88;;
81544;SDS011;70990;50.618;7.346;2024-01-30T07:09:18;14.50;;;6.03;;
81544;SDS011;70990;50.618;7.346;2024-01-30T07:11:45;13.05;;;5.88;;
81544;SDS011;70990;50.618;7.346;2024-01-30T07:14:12;10.73;;;5.75;;
81544;SDS011;70990;50.618;7.346;2024-01-30T07:16:38;14.15;;;5.80;;
81544;SDS011;70990;50.618;7.346;2024-01-30T07:19:05;13.50;;;5.60;;
81544;SDS011;70990;50.618;7.346;2024-01-30T07:21:31;12.05;;;4.65;;
81544;SDS011;70990;50.618;7.346;2024-01-30T07:23:58;13.13;;;5.60;;
81544;SDS011;70990;50.618;7.346;2024-01-30T07:26:24;11.65;;;6.15;;
81544;SDS011;70990;50.618;7.346;2024-01-30T07:28:51;14.25;;;5.75;;
81544;SDS011;70990;50.618;7.346;2024-01-30T07:31:17;12.82;;;5.75;;
81544;SDS011;70990;50.618;7.346;2024-01-30T07:33:44;12.68;;;5.95;;
81544;SDS011;70990;50.618;7.346;2024-01-30T07:36:11;14.00;;;5.15;;
81544;SDS011;70990;50.618;7.346;2024-01-30T07:38:38;13.82;;;6.00;;
81544;SDS011;70990;50.618;7.346;2024-01-30T07:41:22;11.13;;;5.05;;
81544;SDS011;70990;50.618;7.346;2024-01-30T07:43:49;11.93;;;6.25;;
81544;SDS011;70990;50.618;7.346;2024-01-30T07:46:15;10.68;;;5.45;;
81544;SDS011;70990;50.618;7.346;2024-01-30T07:48:42;16.35;;;6.50;;
81544;SDS011;70990;50.618;7.346;2024-01-30T07:51:09;13.38;;;6.45;;
81544;SDS011;70990;50.618;7.346;2024-01-30T07:53:36;12.98;;;6.65;;
81544;SDS011;70990;50.618;7.346;2024-01-30T07:56:03;23.00;;;8.93;;
81544;SDS011;70990;50.618;7.346;2024-01-30T07:58:30;18.17;;;7.25;;
81544;SDS011;70990;50.618;7.346;2024-01-30T08:00:57;16.05;;;6.57;;
81544;SDS011;70990;50.618;7.346;2024-01-30T08:03:24;14.05;;;6.65;;
81544;SDS011;70990;50.618;7.346;2024-01-30T08:05:50;14.10;;;5.75;;
81544;SDS011;70990;50.618;7.346;2024-01-30T08:08:17;12.00;;;5.47;;
81544;SDS011;70990;50.618;7.346;2024-01-30T08:10:44;12.98;;;6.03;;
81544;SDS011;70990;50.618;7.346;2024-01-30T08:13:10;10.77;;;5.75;;
81544;SDS011;70990;50.618;7.346;2024-01-30T08:15:37;14.40;;;6.00;;
81544;SDS011;70990;50.618;7.346;2024-01-30T08:18:04;17.02;;;7.00;;
81544;SDS011;70990;50.618;7.346;2024-01-30T08:20:31;14.43;;;5.22;;
81544;SDS011;70990;50.618;7.346;2024-01-30T08:22:58;12.60;;;5.43;;
81544;SDS011;70990;50.618;7.346;2024-01-30T08:25:25;15.52;;;5.50;;
81544;SDS011;70990;50.618;7.346;2024-01-30T08:27:53;12.30;;;5.55;;
81544;SDS011;70990;50.618;7.346;2024-01-30T08:30:20;12.35;;;5.47;;
81544;SDS011;70990;50.618;7.346;2024-01-30T08:32:46;9.77;;;4.50;;
81544;SDS011;70990;50.618;7.346;2024-01-30T08:35:13;10.73;;;5.47;;
81544;SDS011;70990;50.618;7.346;2024-01-30T08:37:40;14.18;;;5.75;;
81544;SDS011;70990;50.618;7.346;2024-01-30T08:40:07;15.05;;;5.57;;
81544;SDS011;70990;50.618;7.346;2024-01-30T08:42:34;12.77;;;5.60;;
81544;SDS011;70990;50.618;7.346;2024-01-30T08:45:02;11.27;;;5.72;;
81544;SDS011;70990;50.618;7.346;2024-01-30T08:47:29;11.68;;;5.57;;
81544;SDS011;70990;50.618;7.346;2024-01-30T08:49:55;12.88;;;5.50;;
81544;SDS011;70990;50.618;7.346;2024-01-30T08:52:22;15.27;;;6.03;;
81544;SDS011;70990;50.618;7.346;2024-01-30T08:54:48;13.57;;;5.85;;
81544;SDS011;70990;50.618;7.346;2024-01-30T08:57:15;15.05;;;5.75;;
81544;SDS011;70990;50.618;7.346;2024-01-30T08:59:43;11.98;;;5.82;;
81544;SDS011;70990;50.618;7.346;2024-01-30T09:02:09;16.40;;;6.40;;
81544;SDS011;70990;50.618;7.346;2024-01-30T09:04:39;14.23;;;5.90;;
81544;SDS011;70990;50.618;7.346;2024-01-30T09:07:06;12.35;;;5.50;;
81544;SDS011;70990;50.618;7.346;2024-01-30T09:09:37;14.93;;;5.35;;
81544;SDS011;70990;50.618;7.346;2024-01-30T09:12:04;15.95;;;6.20;;
81544;SDS011;70990;50.618;7.346;2024-01-30T09:14:32;11.65;;;5.97;;
81544;SDS011;70990;50.618;7.346;2024-01-30T09:16:59;14.05;;;5.95;;
81544;SDS011;70990;50.618;7.346;2024-01-30T09:19:25;12.93;;;6.13;;
81544;SDS011;70990;50.618;7.346;2024-01-30T09:21:52;16.50;;;7.80;;
81544;SDS011;70990;50.618;7.346;2024-01-30T09:24:19;15.23;;;7.05;;
81544;SDS011;70990;50.618;7.346;2024-01-30T09:26:45;11.30;;;5.18;;
81544;SDS011;70990;50.618;7.346;2024-01-30T09:29:12;14.65;;;5.22;;
81544;SDS011;70990;50.618;7.346;2024-01-30T09:31:39;15.13;;;6.78;;
81544;SDS011;70990;50.618;7.346;2024-01-30T09:34:05;14.80;;;7.28;;
81544;SDS011;70990;50.618;7.346;2024-01-30T09:36:32;17.88;;;8.35;;
81544;SDS011;70990;50.618;7.346;2024-01-30T09:38:58;16.20;;;7.55;;
81544;SDS011;70990;50.618;7.346;2024-01-30T09:41:25;21.27;;;8.23;;
81544;SDS011;70990;50.618;7.346;2024-01-30T09:43:54;12.63;;;6.47;;
81544;SDS011;70990;50.618;7.346;2024-01-30T09:46:22;11.82;;;5.80;;
81544;SDS011;70990;50.618;7.346;2024-01-30T09:48:53;10.82;;;5.00;;
81544;SDS011;70990;50.618;7.346;2024-01-30T09:51:22;12.15;;;6.15;;
81544;SDS011;70990;50.618;7.346;2024-01-30T09:53:49;11.77;;;5.18;;
81544;SDS011;70990;50.618;7.346;2024-01-30T09:56:16;10.65;;;5.25;;
81544;SDS011;70990;50.618;7.346;2024-01-30T09:58:42;13.75;;;5.70;;
81544;SDS011;70990;50.618;7.346;2024-01-30T10:01:09;17.55;;;5.90;;
81544;SDS011;70990;50.618;7.346;2024-01-30T10:03:36;18.70;;;6.10;;
81544;SDS011;70990;50.618;7.346;2024-01-30T10:06:03;12.70;;;5.57;;
81544;SDS011;70990;50.618;7.346;2024-01-30T10:08:30;12.82;;;5.25;;
81544;SDS011;70990;50.618;7.346;2024-01-30T10:10:57;14.43;;;5.97;;
81544;SDS011;70990;50.618;7.346;2024-01-30T10:13:25;12.13;;;6.15;;
81544;SDS011;70990;50.618;7.346;2024-01-30T10:15:53;12.30;;;6.57;;
81544;SDS011;70990;50.618;7.346;2024-01-30T10:18:24;10.68;;;5.47;;
81544;SDS011;70990;50.618;7.346;2024-01-30T10:20:51;11.80;;;5.82;;
81544;SDS011;70990;50.618;7.346;2024-01-30T10:23:18;11.82;;;6.05;;
81544;SDS011;70990;50.618;7.346;2024-01-30T10:25:44;11.18;;;5.22;;
81544;SDS011;70990;50.618;7.346;2024-01-30T10:28:11;15.15;;;5.22;;
81544;SDS011;70990;50.618;7.346;2024-01-30T10:30:38;11.45;;;5.28;;
81544;SDS011;70990;50.618;7.346;2024-01-30T10:33:05;12.02;;;5.22;;
81544;SDS011;70990;50.618;7.346;2024-01-30T10:35:32;10.10;;;4.65;;
81544;SDS011;70990;50.618;7.346;2024-01-30T10:37:58;13.15;;;6.43;;
81544;SDS011;70990;50.618;7.346;2024-01-30T10:40:29;12.95;;;5.25;;
81544;SDS011;70990;50.618;7.346;2024-01-30T10:42:56;13.32;;;5.93;;
81544;SDS011;70990;50.618;7.346;2024-01-30T10:45:23;10.93;;;5.85;;
81544;SDS011;70990;50.618;7.346;2024-01-30T10:47:54;13.70;;;6.00;;
81544;SDS011;70990;50.618;7.346;2024-01-30T10:50:22;10.00;;;5.25;;
81544;SDS011;70990;50.618;7.346;2024-01-30T10:52:51;12.57;;;4.85;;
81544;SDS011;70990;50.618;7.346;2024-01-30T10:55:18;12.98;;;5.85;;
81544;SDS011;70990;50.618;7.346;2024-01-30T10:57:48;11.02;;;5.15;;
81544;SDS011;70990;50.618;7.346;2024-01-30T11:00:15;9.93;;;4.75;;
81544;SDS011;70990;50.618;7.346;2024-01-30T11:02:43;9.38;;;4.85;;
81544;SDS011;70990;50.618;7.346;2024-01-30T11:05:12;12.38;;;5.43;;
81544;SDS011;70990;50.618;7.346;2024-01-30T11:07:40;11.38;;;6.50;;
81544;SDS011;70990;50.618;7.346;2024-01-30T11:10:08;10.23;;;5.20;;
81544;SDS011;70990;50.618;7.346;2024-01-30T11:12:40;8.98;;;4.68;;
81544;SDS011;70990;50.618;7.346;2024-01-30T11:15:18;9.93;;;4.78;;
81544;SDS011;70990;50.618;7.346;2024-01-30T11:20:15;12.20;;;5.55;;
81544;SDS011;70990;50.618;7.346;2024-01-30T11:22:44;12.25;;;4.90;;
81544;SDS011;70990;50.618;7.346;2024-01-30T11:25:13;10.18;;;5.30;;
81544;SDS011;70990;50.618;7.346;2024-01-30T11:27:44;12.77;;;5.80;;
81544;SDS011;70990;50.618;7.346;2024-01-30T11:35:36;11.77;;;4.97;;
81544;SDS011;70990;50.618;7.346;2024-01-30T11:38:07;11.55;;;5.05;;
81544;SDS011;70990;50.618;7.346;2024-01-30T11:40:36;9.77;;;5.57;;
81544;SDS011;70990;50.618;7.346;2024-01-30T11:43:05;11.38;;;4.65;;
81544;SDS011;70990;50.618;7.346;2024-01-30T11:45:34;11.80;;;5.75;;
81544;SDS011;70990;50.618;7.346;2024-01-30T11:48:02;10.25;;;5.32;;
81544;SDS011;70990;50.618;7.346;2024-01-30T11:50:30;12.10;;;5.57;;
81544;SDS011;70990;50.618;7.346;2024-01-30T11:52:57;9.57;;;4.45;;
81544;SDS011;70990;50.618;7.346;2024-01-30T11:55:26;13.48;;;5.55;;
81544;SDS011;70990;50.618;7.346;2024-01-30T11:57:59;12.23;;;5.80;;
81544;SDS011;70990;50.618;7.346;2024-01-30T12:00:26;11.93;;;4.97;;
81544;SDS011;70990;50.618;7.346;2024-01-30T12:02:53;9.60;;;5.15;;
81544;SDS011;70990;50.618;7.346;2024-01-30T12:05:21;13.05;;;5.65;;
81544;SDS011;70990;50.618;7.346;2024-01-30T12:07:49;12.82;;;5.97;;
81544;SDS011;70990;50.618;7.346;2024-01-30T12:10:16;10.75;;;5.22;;
81544;SDS011;70990;50.618;7.346;2024-01-30T12:12:47;10.63;;;5.35;;
81544;SDS011;70990;50.618;7.346;2024-01-30T12:15:16;9.95;;;4.68;;
81544;SDS011;70990;50.618;7.346;2024-01-30T12:17:47;10.68;;;4.90;;
81544;SDS011;70990;50.618;7.346;2024-01-30T12:20:14;12.30;;;5.82;;
81544;SDS011;70990;50.618;7.346;2024-01-30T12:22:44;11.60;;;5.07;;
81544;SDS011;70990;50.618;7.346;2024-01-30T12:25:21;10.85;;;4.82;;
81544;SDS011;70990;50.618;7.346;2024-01-30T12:27:49;11.50;;;5.22;;
81544;SDS011;70990;50.618;7.346;2024-01-30T12:30:17;14.05;;;5.45;;
81544;SDS011;70990;50.618;7.346;2024-01-30T12:32:46;12.20;;;6.28;;
81544;SDS011;70990;50.618;7.346;2024-01-30T12:35:16;11.50;;;5.53;;
81544;SDS011;70990;50.618;7.346;2024-01-30T12:37:45;10.50;;;4.53;;
81544;SDS011;70990;50.618;7.346;2024-01-30T12:40:16;10.02;;;5.20;;
81544;SDS011;70990;50.618;7.346;2024-01-30T12:42:43;9.30;;;4.60;;
81544;SDS011;70990;50.618;7.346;2024-01-30T12:45:13;10.02;;;5.25;;
81544;SDS011;70990;50.618;7.346;2024-01-30T12:47:40;13.10;;;5.32;;
81544;SDS011;70990;50.618;7.346;2024-01-30T12:50:08;13.25;;;4.35;;
81544;SDS011;70990;50.618;7.346;2024-01-30T12:52:36;10.70;;;5.70;;
81544;SDS011;70990;50.618;7.346;2024-01-30T12:55:02;10.27;;;5.40;;
81544;SDS011;70990;50.618;7.346;2024-01-30T12:57:30;11.73;;;5.25;;
81544;SDS011;70990;50.618;7.346;2024-01-30T12:59:56;10.88;;;5.18;;
81544;SDS011;70990;50.618;7.346;2024-01-30T13:02:23;12.02;;;5.88;;
81544;SDS011;70990;50.618;7.346;2024-01-30T13:04:50;12.40;;;5.20;;
81544;SDS011;70990;50.618;7.346;2024-01-30T13:07:17;10.68;;;4.70;;
81544;SDS011;70990;50.618;7.346;2024-01-30T13:09:44;14.18;;;4.75;;
81544;SDS011;70990;50.618;7.346;2024-01-30T13:12:11;11.90;;;6.07;;
81544;SDS011;70990;50.618;7.346;2024-01-30T13:14:37;14.05;;;5.13;;
81544;SDS011;70990;50.618;7.346;2024-01-30T13:17:04;12.18;;;4.78;;
81544;SDS011;70990;50.618;7.346;2024-01-30T13:19:30;11.25;;;5.25;;
81544;SDS011;70990;50.618;7.346;2024-01-30T13:21:57;8.95;;;4.75;;
81544;SDS011;70990;50.618;7.346;2024-01-30T13:24:24;10.65;;;4.90;;
81544;SDS011;70990;50.618;7.346;2024-01-30T13:26:51;10.95;;;5.30;;
81544;SDS011;70990;50.618;7.346;2024-01-30T13:29:18;8.68;;;4.75;;
81544;SDS011;70990;50.618;7.346;2024-01-30T13:31:45;12.48;;;5.10;;
81544;SDS011;70990;50.618;7.346;2024-01-30T13:34:12;12.13;;;4.97;;
81544;SDS011;70990;50.618;7.346;2024-01-30T13:36:39;11.68;;;4.65;;
81544;SDS011;70990;50.618;7.346;2024-01-30T13:39:06;11.95;;;5.75;;
81544;SDS011;70990;50.618;7.346;2024-01-30T13:41:34;9.20;;;4.47;;
81544;SDS011;70990;50.618;7.346;2024-01-30T13:44:01;10.13;;;3.83;;
81544;SDS011;70990;50.618;7.346;2024-01-30T13:46:28;13.60;;;5.05;;
81544;SDS011;70990;50.618;7.346;2024-01-30T13:48:56;11.70;;;5.30;;
81544;SDS011;70990;50.618;7.346;2024-01-30T13:51:26;10.10;;;4.55;;
81544;SDS011;70990;50.618;7.346;2024-01-30T13:53:53;13.15;;;5.95;;
81544;SDS011;70990;50.618;7.346;2024-01-30T13:56:20;11.57;;;4.70;;
81544;SDS011;70990;50.618;7.346;2024-01-30T13:58:50;12.70;;;5.43;;
81544;SDS011;70990;50.618;7.346;2024-01-30T14:01:17;15.25;;;5.80;;
81544;SDS011;70990;50.618;7.346;2024-01-30T14:03:45;13.10;;;4.90;;
81544;SDS011;70990;50.618;7.346;2024-01-30T14:06:11;12.30;;;4.70;;
81544;SDS011;70990;50.618;7.346;2024-01-30T14:08:38;11.77;;;5.35;;
81544;SDS011;70990;50.618;7.346;2024-01-30T14:11:05;9.40;;;5.10;;
81544;SDS011;70990;50.618;7.346;2024-01-30T14:13:31;10.88;;;4.68;;
81544;SDS011;70990;50.618;7.346;2024-01-30T14:15:58;10.73;;;5.30;;
81544;SDS011;70990;50.618;7.346;2024-01-30T14:18:25;15.57;;;6.57;;
81544;SDS011;70990;50.618;7.346;2024-01-30T14:20:51;14.52;;;5.80;;
81544;SDS011;70990;50.618;7.346;2024-01-30T14:23:18;11.82;;;4.82;;
81544;SDS011;70990;50.618;7.346;2024-01-30T14:25:44;14.25;;;5.93;;
81544;SDS011;70990;50.618;7.346;2024-01-30T14:28:11;11.15;;;4.95;;
81544;SDS011;70990;50.618;7.346;2024-01-30T14:30:37;11.85;;;5.25;;
81544;SDS011;70990;50.618;7.346;2024-01-30T14:33:04;12.52;;;4.93;;
81544;SDS011;70990;50.618;7.346;2024-01-30T14:35:31;10.18;;;4.82;;
81544;SDS011;70990;50.618;7.346;2024-01-30T14:37:58;12.23;;;5.40;;
81544;SDS011;70990;50.618;7.346;2024-01-30T14:40:24;11.90;;;6.22;;
81544;SDS011;70990;50.618;7.346;2024-01-30T14:42:51;15.75;;;6.13;;